createdAt,value
2022-08-20T00:02:27.482Z,100680.25
2022-08-20T00:07:29.264Z,100674.22
2022-08-20T00:12:30.923Z,100667.31
2022-08-20T00:17:37.095Z,100687.72
2022-08-20T00:22:38.839Z,100685.81
2022-08-20T00:27:40.509Z,100688.47
2022-08-20T00:32:44.080Z,100691.97
2022-08-20T00:37:45.814Z,100684.94
2022-08-20T00:42:49.827Z,100693.81
2022-08-20T00:47:51.771Z,100689.44
2022-08-20T00:52:53.723Z,100688.78
2022-08-20T00:58:01.112Z,100694.16
2022-08-20T01:03:03.771Z,100709.13
2022-08-20T01:08:05.456Z,100702.03
2022-08-20T01:13:12.492Z,100709.28
2022-08-20T01:18:16.449Z,100711.25
2022-08-20T01:23:30.334Z,100713.88
2022-08-20T01:28:35.415Z,100707.78
2022-08-20T01:33:37.083Z,100705.13
2022-08-20T01:38:38.856Z,100699.84
2022-08-20T01:43:41.843Z,100699.72
2022-08-20T01:48:43.584Z,100703.97
2022-08-20T01:53:47.515Z,100698.91
2022-08-20T01:58:55.970Z,100695.66
2022-08-20T02:04:01.954Z,100695.88
2022-08-20T02:09:04.103Z,100697.78
2022-08-20T02:14:07.239Z,100706.84
2022-08-20T02:19:15.166Z,100714.03
2022-08-20T02:24:16.814Z,100708.88
2022-08-20T02:29:18.519Z,100709.72
2022-08-20T02:34:22.925Z,100706.03
2022-08-20T02:39:26.667Z,100708.66
2022-08-20T02:44:28.327Z,100714.91
2022-08-20T02:49:30.169Z,100724.50
2022-08-20T02:54:31.863Z,100729.78
2022-08-20T02:59:33.567Z,100724.50
2022-08-20T03:04:35.302Z,100722.94
2022-08-20T03:09:37.055Z,100719.44
2022-08-20T03:14:38.705Z,100729.41
2022-08-20T03:19:40.365Z,100734.69
2022-08-20T03:24:42.102Z,100733.06
2022-08-20T03:29:43.776Z,100736.63
2022-08-20T03:34:45.470Z,100732.31
2022-08-20T03:39:47.289Z,100734.09
2022-08-20T03:44:49.223Z,100732.31
2022-08-20T03:50:01.126Z,100731.47
2022-08-20T03:55:03.478Z,100732.44
2022-08-20T04:00:06.423Z,100727.41
2022-08-20T04:05:13.503Z,100741.69
2022-08-20T04:10:15.146Z,100747.25
2022-08-20T04:15:17.187Z,100746.38
2022-08-20T04:20:23.704Z,100743.63
2022-08-20T04:25:25.360Z,100744.53
2022-08-20T04:30:28.843Z,100758.59
2022-08-20T04:35:30.803Z,100748.06
2022-08-20T04:40:51.415Z,100754.16
2022-08-20T04:45:53.633Z,100747.13
2022-08-20T04:50:55.697Z,100748.00
2022-08-20T04:56:00.748Z,100749.63
2022-08-20T05:01:07.136Z,100758.41
2022-08-20T05:06:09.800Z,100768.97
2022-08-20T05:11:35.902Z,100772.53
2022-08-20T05:16:37.935Z,100770.94
2022-08-20T05:21:39.731Z,100775.47
2022-08-20T05:26:41.445Z,100777.16
2022-08-20T05:31:43.280Z,100777.03
2022-08-20T05:36:48.160Z,100783.09
2022-08-20T05:41:51.188Z,100782.16
2022-08-20T05:46:52.854Z,100791.72
2022-08-20T05:51:54.588Z,100790.72
2022-08-20T05:56:56.398Z,100789.56
2022-08-20T06:01:58.087Z,100790.34
2022-08-20T06:07:04.830Z,100798.44
2022-08-20T06:12:08.838Z,100794.09
2022-08-20T06:17:15.620Z,100809.94
2022-08-20T06:22:19.580Z,100808.16
2022-08-20T06:27:26.309Z,100819.63
2022-08-20T06:32:32.007Z,100809.91
2022-08-20T06:37:36.477Z,100816.13
2022-08-20T06:42:47.854Z,100814.50
2022-08-20T06:47:50.192Z,100826.84
2022-08-20T06:52:53.207Z,100824.97
2022-08-20T06:58:02.631Z,100821.25
2022-08-20T07:03:04.865Z,100823.66
2022-08-20T07:08:06.543Z,100820.66
2022-08-20T07:13:09.264Z,100817.66
2022-08-20T07:18:11.116Z,100819.09
2022-08-20T07:23:12.784Z,100816.44
2022-08-20T07:28:16.501Z,100812.38
2022-08-20T07:33:18.383Z,100818.13
2022-08-20T07:38:24.786Z,100822.38
2022-08-20T07:43:26.478Z,100833.84
2022-08-20T07:48:32.478Z,100832.44
2022-08-20T07:53:36.169Z,100829.66
2022-08-20T07:58:39.311Z,100832.63
2022-08-20T08:03:49.717Z,100841.44
2022-08-20T08:08:52.209Z,100843.22
2022-08-20T08:13:54.526Z,100845.06
2022-08-20T08:19:01.253Z,100845.19
2022-08-20T08:24:03.873Z,100850.31
2022-08-20T08:29:07.536Z,100850.06
2022-08-20T08:34:10.354Z,100853.94
2022-08-20T08:39:12.012Z,100853.44
2022-08-20T08:44:23.069Z,100860.06
2022-08-20T08:49:37.603Z,100862.25
2022-08-20T08:54:42.463Z,100869.41
2022-08-20T08:59:47.375Z,100866.91
2022-08-20T09:05:14.917Z,100872.19
2022-08-20T09:10:17.527Z,100882.59
2022-08-20T09:15:24.907Z,100887.34
2022-08-20T09:20:27.169Z,100890.03
2022-08-20T09:25:28.982Z,100894.81
2022-08-20T09:30:30.693Z,100892.44
2022-08-20T09:35:32.495Z,100884.28
2022-08-20T09:40:34.674Z,100890.53
2022-08-20T09:45:36.459Z,100891.28
2022-08-20T09:50:38.933Z,100892.72
2022-08-20T09:55:41.813Z,100900.03
2022-08-20T10:00:43.477Z,100890.56
2022-08-20T10:05:45.200Z,100892.28
2022-08-20T10:10:46.877Z,100899.25
2022-08-20T10:15:48.551Z,100896.59
2022-08-20T10:20:50.241Z,100897.16
2022-08-20T10:25:51.932Z,100896.53
2022-08-20T10:30:53.580Z,100900.00
2022-08-20T10:35:59.648Z,100904.38
2022-08-20T10:41:01.824Z,100905.25
2022-08-20T10:46:03.587Z,100890.06
2022-08-20T10:51:05.352Z,100894.22
2022-08-20T10:56:07.256Z,100891.97
2022-08-20T11:01:08.997Z,100895.50
2022-08-20T11:06:10.674Z,100889.22
2022-08-20T11:11:14.502Z,100890.06
2022-08-20T11:16:16.163Z,100885.84
2022-08-20T11:21:17.864Z,100885.25
2022-08-20T11:26:22.229Z,100885.13
2022-08-20T11:31:23.931Z,100892.00
2022-08-20T11:36:26.443Z,100898.75
2022-08-20T11:41:28.116Z,100908.06
2022-08-20T11:46:29.825Z,100909.94
2022-08-20T11:51:31.470Z,100909.28
2022-08-20T11:56:51.489Z,100900.09
2022-08-20T12:02:02.851Z,100907.59
2022-08-20T12:07:10.245Z,100906.31
2022-08-20T12:12:12.117Z,100909.94
2022-08-20T12:17:23.962Z,100906.72
2022-08-20T12:22:25.769Z,100914.59
2022-08-20T12:27:28.950Z,100914.38
2022-08-20T12:32:31.234Z,100914.38
2022-08-20T12:37:32.911Z,100920.50
2022-08-20T12:42:34.648Z,100941.13
2022-08-20T12:47:38.188Z,100963.78
2022-08-20T12:52:39.869Z,100960.72
2022-08-20T12:57:52.636Z,100961.53
2022-08-20T13:02:55.098Z,100962.44
2022-08-20T13:07:56.898Z,100975.13
2022-08-20T13:12:59.068Z,100963.66
2022-08-20T13:18:01.739Z,100963.84
2022-08-20T13:23:04.407Z,100950.31
2022-08-20T13:28:06.103Z,100948.09
2022-08-20T13:33:07.774Z,100931.34
2022-08-20T13:38:09.444Z,100925.53
2022-08-20T13:43:11.965Z,100917.19
2022-08-20T13:48:14.903Z,100909.59
2022-08-20T13:53:17.547Z,100900.66
2022-08-20T13:58:21.641Z,100897.31
2022-08-20T14:03:25.273Z,100898.25
2022-08-20T14:08:27.439Z,100894.13
2022-08-20T14:13:29.183Z,100898.06
2022-08-20T14:18:30.857Z,100900.25
2022-08-20T14:23:32.526Z,100904.25
2022-08-20T14:28:38.653Z,100913.00
2022-08-20T14:33:44.423Z,100918.25
2022-08-20T14:38:46.415Z,100915.38
2022-08-20T14:43:48.191Z,100918.25
2022-08-20T14:48:53.300Z,100923.69
2022-08-20T14:53:55.233Z,100929.81
2022-08-20T14:58:56.896Z,100929.41
2022-08-20T15:03:58.561Z,100928.13
2022-08-20T15:09:00.225Z,100915.69
2022-08-20T15:14:01.920Z,100917.81
2022-08-20T15:19:03.799Z,100915.72
2022-08-20T15:24:05.577Z,100916.44
2022-08-20T15:29:23.050Z,100904.16
2022-08-20T15:34:25.240Z,100911.44
2022-08-20T15:39:27.879Z,100908.38
2022-08-20T15:44:29.534Z,100903.63
2022-08-20T15:49:31.188Z,100905.84
2022-08-20T15:54:32.852Z,100912.06
2022-08-20T16:00:22.882Z,100905.19
2022-08-20T16:05:38.767Z,100901.44
2022-08-20T16:10:46.421Z,100901.47
2022-08-20T16:15:49.660Z,100901.97
2022-08-20T16:20:52.711Z,100910.31
2022-08-20T16:26:28.351Z,100917.81
2022-08-20T16:31:32.764Z,100917.88
2022-08-20T16:36:46.189Z,100912.63
2022-08-20T16:42:00.472Z,100916.91
2022-08-20T16:47:28.284Z,100912.16
2022-08-20T16:52:29.959Z,100905.97
2022-08-20T16:57:31.642Z,100903.78
2022-08-20T17:02:33.305Z,100900.72
2022-08-20T17:07:46.983Z,100906.34
2022-08-20T17:12:54.334Z,100909.59
2022-08-20T17:17:56.223Z,100904.28
2022-08-20T17:23:18.245Z,100907.56
2022-08-20T17:28:20.440Z,100902.97
2022-08-20T17:33:30.049Z,100913.53
2022-08-20T17:38:45.663Z,100905.22
2022-08-20T17:43:47.335Z,100908.00
2022-08-20T17:48:49.154Z,100903.97
2022-08-20T17:53:53.300Z,100919.59
2022-08-20T17:59:03.107Z,100921.09
2022-08-20T18:04:05.420Z,100924.34
2022-08-20T18:09:13.189Z,100933.41
2022-08-20T18:14:19.375Z,100944.81
2022-08-20T18:19:42.120Z,100931.81
2022-08-20T18:24:55.483Z,100936.88
2022-08-20T18:29:58.845Z,100943.31
2022-08-20T18:35:11.343Z,100952.53
2022-08-20T18:40:17.555Z,100961.41
2022-08-20T18:45:33.644Z,100968.03
2022-08-20T18:50:40.967Z,100965.38
2022-08-20T18:55:44.968Z,100977.34
2022-08-20T19:00:48.971Z,100976.66
2022-08-20T19:06:26.732Z,100981.97
2022-08-20T19:11:56.936Z,100978.34
2022-08-20T19:17:10.043Z,100977.91
2022-08-20T19:22:12.986Z,100965.09
2022-08-20T19:27:14.629Z,100971.69
2022-08-20T19:32:23.584Z,100968.88
2022-08-20T19:37:39.645Z,100967.91
2022-08-20T19:42:49.660Z,100969.81
2022-08-20T19:48:07.999Z,100983.78
2022-08-20T19:53:26.452Z,100993.44
2022-08-20T19:58:32.409Z,100991.31
2022-08-20T20:03:35.179Z,100993.69
2022-08-20T20:08:43.331Z,101000.63
2022-08-20T20:13:45.086Z,101004.88
2022-08-20T20:18:58.847Z,101006.13
2022-08-20T20:24:08.546Z,101003.97
2022-08-20T20:29:18.916Z,101007.63
2022-08-20T20:34:29.143Z,101018.81
2022-08-20T20:39:36.156Z,101021.94
2022-08-20T20:44:41.976Z,101027.72
2022-08-20T20:49:52.217Z,101031.81
2022-08-20T20:55:05.033Z,101034.81
2022-08-20T21:00:13.666Z,101035.19
2022-08-20T21:05:16.488Z,101032.59
2022-08-20T21:10:19.372Z,101034.00
2022-08-20T21:15:22.010Z,101035.66
2022-08-20T21:20:23.853Z,101044.00
2022-08-20T21:25:26.691Z,101043.44
2022-08-20T21:30:28.506Z,101043.78
2022-08-20T21:35:30.251Z,101043.97
2022-08-20T21:40:31.955Z,101048.78
2022-08-20T21:45:33.818Z,101047.44
2022-08-20T21:50:35.572Z,101060.03
2022-08-20T21:55:39.583Z,101057.63
2022-08-20T22:00:57.856Z,101062.31
2022-08-20T22:06:00.392Z,101064.31
2022-08-20T22:11:02.036Z,101052.97
2022-08-20T22:16:06.211Z,101048.53
2022-08-20T22:21:10.464Z,101054.91
2022-08-20T22:26:12.308Z,101041.88
2022-08-20T22:31:14.241Z,101041.88
2022-08-20T22:36:15.971Z,101044.53
2022-08-20T22:41:18.086Z,101046.09
2022-08-20T22:46:19.768Z,101045.25
2022-08-20T22:51:32.556Z,101037.44
2022-08-20T22:56:37.031Z,101050.88
2022-08-20T23:01:39.230Z,101042.16
2022-08-20T23:06:41.048Z,101040.47
2022-08-20T23:11:42.696Z,101037.88
2022-08-20T23:16:45.260Z,101026.56
2022-08-20T23:21:48.088Z,101024.97
2022-08-20T23:26:53.124Z,101019.06
2022-08-20T23:31:55.655Z,101014.72
2022-08-20T23:36:57.519Z,101013.13
2022-08-20T23:41:59.285Z,101008.03
2022-08-20T23:47:02.059Z,101013.41
2022-08-20T23:52:03.798Z,101015.38
2022-08-20T23:57:08.102Z,101017.34
